Pagina principale
METAR-TAF:

METAR-TAF

Aeroporti :

Aeroporto di Graz

Graz, Austria

latitudine: 47-00N, longitudine: 015-26E, altezza: 340 m

Osservazione

Il bollettino è stato emesso 39 minuti fa, alle 03:20 UTC
Vento 1 kt da direzioni variabili
Temperature 3°C
Umidità 87%
Pressione 1026 hPa
Visibilità 10 km o più
Nuvoloso ad un'altezza di 7000 ft

METAR: LOWG 270320Z AUTO VRB01KT 9999 BKN070 03/01 Q1026

Ora: 04:59 (03:59 UTC)

Previsione

Il bollettino è stato emesso 4 ore e 44 minuti fa, alle 23:15 UTC
Previsione valida dal 27 alle 00 UTC al 27 alle 24 UTC
Vento 3 kt da direzioni variabili
Visibilità 10 km o più
nessuna nube inferiore a 1500 m e nessun cumulonembo
Probabilità 40% :
Temporaneamente
dal 27 alle 02 UTC al 27 alle 05 UTC
pioggia debole
Temporaneamente
dal 27 alle 07 UTC al 27 alle 18 UTC
Vento 8 kt da nord

TAF: LOWG 262315Z 2700/2724 VRB03KT CAVOK TX12/2714Z TN00/2724Z PROB40 TEMPO 2702/2705 -RA TEMPO 2707/2718 35008KT

Osservazioni e previsioni meteorologiche di più di 4000 aeroporti (messaggi METAR e TAF).

Le stazioni disponibili sono rappresentate dai dischi gialli e rossi sulla carta.

Puntare il mouse per vedere il nome della stazione.

Clicca sopra per visualizzare le osservazioni e previsioni meteorologiche.

Per cambiare la mappa : fare clic sui pulsanti verdi con una croce nera per ingrandire, il pulsante verde con un trattino per diminuire, o sulla freccia verde per le mappe adiacenti.


METAR-TAF: